createdAt,value
2019-03-21T00:01:40.397Z,11.68
2019-03-21T00:04:13.109Z,8.90
2019-03-21T00:06:43.587Z,7.60
2019-03-21T00:09:15.991Z,9.20
2019-03-21T00:12:00.898Z,7.15
2019-03-21T00:14:37.158Z,8.10
2019-03-21T00:17:07.550Z,8.75
2019-03-21T00:19:37.962Z,10.32
2019-03-21T00:22:08.398Z,9.65
2019-03-21T00:24:38.755Z,8.73
2019-03-21T00:27:10.246Z,9.45
2019-03-21T00:29:40.709Z,9.98
2019-03-21T00:32:11.136Z,9.93
2019-03-21T00:34:48.241Z,9.00
2019-03-21T00:37:18.997Z,7.47
2019-03-21T00:39:49.526Z,7.67
2019-03-21T00:42:19.875Z,8.43
2019-03-21T00:44:50.234Z,11.17
2019-03-21T00:47:20.662Z,12.70
2019-03-21T00:49:51.015Z,13.50
2019-03-21T00:52:21.413Z,11.20
2019-03-21T00:54:51.825Z,12.58
2019-03-21T00:57:24.845Z,14.28
2019-03-21T00:59:55.853Z,13.48
2019-03-21T01:02:27.178Z,11.68
2019-03-21T01:04:58.514Z,11.55
2019-03-21T01:07:30.237Z,12.78
2019-03-21T01:10:03.047Z,12.25
2019-03-21T01:12:33.595Z,14.40
2019-03-21T01:15:04.394Z,12.70
2019-03-21T01:17:34.742Z,12.95
2019-03-21T01:20:06.272Z,10.72
2019-03-21T01:22:36.737Z,13.83
2019-03-21T01:25:09.626Z,13.15
2019-03-21T01:27:40.099Z,13.80
2019-03-21T01:30:12.322Z,12.82
2019-03-21T01:32:42.690Z,10.30
2019-03-21T01:35:13.046Z,10.10
2019-03-21T01:37:45.998Z,11.15
2019-03-21T01:40:19.275Z,12.55
2019-03-21T01:42:50.014Z,12.03
2019-03-21T01:45:21.857Z,10.90
2019-03-21T01:47:53.007Z,9.48
2019-03-21T01:50:23.811Z,10.40
2019-03-21T01:52:54.279Z,10.23
2019-03-21T01:55:25.200Z,9.88
2019-03-21T01:57:57.849Z,12.90
2019-03-21T02:00:34.368Z,12.68
2019-03-21T02:03:04.821Z,10.43
2019-03-21T02:05:35.157Z,12.05
2019-03-21T02:08:05.645Z,10.40
2019-03-21T02:10:36.507Z,13.10
2019-03-21T02:13:09.382Z,10.18
2019-03-21T02:15:40.860Z,9.98
2019-03-21T02:18:11.415Z,11.83
2019-03-21T02:20:41.735Z,10.72
2019-03-21T02:23:12.564Z,10.98
2019-03-21T02:25:43.056Z,11.73
2019-03-21T02:28:13.467Z,10.08
2019-03-21T02:30:46.034Z,9.58
2019-03-21T02:33:22.891Z,10.20
2019-03-21T02:35:57.849Z,10.20
2019-03-21T02:38:28.350Z,11.50
2019-03-21T02:41:00.030Z,11.70
2019-03-21T02:43:30.372Z,10.40
2019-03-21T02:46:00.703Z,12.33
2019-03-21T02:48:31.188Z,10.45
2019-03-21T02:51:14.721Z,11.78
2019-03-21T02:53:45.129Z,10.85
2019-03-21T02:56:19.799Z,12.57
2019-03-21T02:58:50.489Z,10.38
2019-03-21T03:01:21.377Z,9.75
2019-03-21T03:03:52.005Z,10.15
2019-03-21T03:06:22.415Z,9.75
2019-03-21T03:08:53.068Z,10.90
2019-03-21T03:11:23.843Z,9.85
2019-03-21T03:13:54.286Z,9.95
2019-03-21T03:16:24.659Z,10.85
2019-03-21T03:18:55.001Z,9.95
2019-03-21T03:21:25.556Z,10.90
2019-03-21T03:23:55.937Z,10.70
2019-03-21T03:26:26.301Z,10.05
2019-03-21T03:28:56.713Z,11.30
2019-03-21T03:31:27.120Z,11.53
2019-03-21T03:33:57.489Z,11.73
2019-03-21T03:36:27.997Z,11.28
2019-03-21T03:38:58.440Z,11.20
2019-03-21T03:41:29.222Z,10.80
2019-03-21T03:43:59.545Z,10.18
2019-03-21T03:46:29.977Z,10.08
2019-03-21T03:49:00.407Z,9.83
2019-03-21T03:51:30.826Z,11.00
2019-03-21T03:54:02.306Z,10.53
2019-03-21T03:56:32.627Z,9.90
2019-03-21T03:59:03.293Z,10.55
2019-03-21T04:01:33.633Z,10.50
2019-03-21T04:04:03.934Z,8.98
2019-03-21T04:06:34.307Z,9.55
2019-03-21T04:09:06.486Z,12.10
2019-03-21T04:11:36.988Z,10.35
2019-03-21T04:14:07.359Z,11.30
2019-03-21T04:16:37.677Z,9.40
2019-03-21T04:19:08.074Z,10.93
2019-03-21T04:21:38.446Z,10.05
2019-03-21T04:24:08.777Z,9.80
2019-03-21T04:26:39.149Z,10.20
2019-03-21T04:29:09.538Z,9.53
2019-03-21T04:31:39.912Z,9.25
2019-03-21T04:34:10.699Z,10.23
2019-03-21T04:36:41.222Z,10.23
2019-03-21T04:39:11.666Z,9.90
2019-03-21T04:41:42.885Z,11.12
2019-03-21T04:44:13.237Z,10.05
2019-03-21T04:46:43.583Z,9.23
2019-03-21T04:49:13.909Z,10.43
2019-03-21T04:51:44.256Z,9.73
2019-03-21T04:54:15.049Z,8.30
2019-03-21T04:56:46.470Z,13.83
2019-03-21T04:59:16.902Z,14.87
2019-03-21T05:01:47.365Z,11.50
2019-03-21T05:04:17.714Z,9.38
2019-03-21T05:06:48.171Z,9.80
2019-03-21T05:09:20.166Z,10.20
2019-03-21T05:11:50.546Z,9.98
2019-03-21T05:14:20.892Z,9.80
2019-03-21T05:16:51.238Z,9.18
2019-03-21T05:19:21.661Z,9.08
2019-03-21T05:21:52.022Z,11.05
2019-03-21T05:24:22.346Z,9.88
2019-03-21T05:26:52.664Z,9.63
2019-03-21T05:29:23.206Z,10.28
2019-03-21T05:31:53.510Z,9.40
2019-03-21T05:34:23.933Z,9.48
2019-03-21T05:36:54.317Z,10.60
2019-03-21T05:39:24.700Z,10.03
2019-03-21T05:41:55.030Z,9.95
2019-03-21T05:44:32.476Z,9.43
2019-03-21T05:47:02.798Z,10.70
2019-03-21T05:49:33.259Z,10.88
2019-03-21T05:52:03.842Z,9.83
2019-03-21T05:54:34.230Z,10.68
2019-03-21T05:57:04.657Z,12.68
2019-03-21T05:59:34.980Z,11.00
2019-03-21T06:02:05.399Z,9.58
2019-03-21T06:04:35.839Z,11.93
2019-03-21T06:07:16.671Z,10.05
2019-03-21T06:09:47.186Z,11.50
2019-03-21T06:12:17.531Z,12.07
2019-03-21T06:14:51.913Z,10.95
2019-03-21T06:17:23.474Z,11.45
2019-03-21T06:20:00.340Z,10.03
2019-03-21T06:22:47.105Z,11.03
2019-03-21T06:25:59.994Z,12.65
2019-03-21T06:28:30.410Z,17.52
2019-03-21T06:31:00.860Z,16.07
2019-03-21T06:33:31.230Z,17.55
2019-03-21T06:36:01.906Z,16.10
2019-03-21T06:38:32.532Z,12.75
2019-03-21T06:41:02.890Z,12.28
2019-03-21T06:43:33.225Z,12.00
2019-03-21T06:46:03.580Z,16.25
2019-03-21T06:48:34.025Z,25.82
2019-03-21T06:51:04.533Z,30.88
2019-03-21T06:53:34.993Z,12.03
2019-03-21T06:56:05.460Z,12.60
2019-03-21T06:58:35.816Z,13.88
2019-03-21T07:01:06.243Z,10.38
2019-03-21T07:03:36.727Z,12.03
2019-03-21T07:06:07.266Z,10.55
2019-03-21T07:08:41.342Z,12.87
2019-03-21T07:11:11.682Z,12.78
2019-03-21T07:13:42.058Z,13.22
2019-03-21T07:16:12.639Z,13.40
2019-03-21T07:18:43.087Z,13.85
2019-03-21T07:21:13.574Z,11.88
2019-03-21T07:23:44.120Z,12.15
2019-03-21T07:26:14.467Z,11.17
2019-03-21T07:28:44.877Z,12.23
2019-03-21T07:31:15.284Z,13.13
2019-03-21T07:33:45.841Z,11.22
2019-03-21T07:36:16.254Z,10.80
2019-03-21T07:38:46.707Z,11.15
2019-03-21T07:41:17.192Z,10.00
2019-03-21T07:43:47.600Z,13.48
2019-03-21T07:46:18.033Z,14.98
2019-03-21T07:48:52.405Z,14.43
2019-03-21T07:51:23.161Z,10.10
2019-03-21T07:53:53.520Z,11.27
2019-03-21T07:56:25.062Z,14.30
2019-03-21T07:58:57.911Z,10.65
2019-03-21T08:01:28.487Z,10.73
2019-03-21T08:03:59.896Z,10.25
2019-03-21T08:06:30.440Z,12.68
2019-03-21T08:09:00.858Z,11.88
2019-03-21T08:11:32.841Z,9.45
2019-03-21T08:14:03.223Z,10.45
2019-03-21T08:16:33.782Z,10.58
2019-03-21T08:19:04.159Z,9.58
2019-03-21T08:21:34.679Z,10.88
2019-03-21T08:24:05.126Z,10.43
2019-03-21T08:26:35.480Z,11.18
2019-03-21T08:29:05.888Z,12.55
2019-03-21T08:31:37.410Z,11.45
2019-03-21T08:34:07.751Z,8.65
2019-03-21T08:36:38.101Z,10.63
2019-03-21T08:39:09.395Z,10.30
2019-03-21T08:41:39.993Z,10.25
2019-03-21T08:44:10.396Z,12.30
2019-03-21T08:46:40.774Z,12.67
2019-03-21T08:49:11.123Z,11.73
2019-03-21T08:51:41.557Z,11.63
2019-03-21T08:54:12.104Z,10.78
2019-03-21T08:56:42.630Z,8.55
2019-03-21T08:59:14.940Z,10.23
2019-03-21T09:01:45.931Z,10.35
2019-03-21T09:04:16.669Z,8.70
2019-03-21T09:06:47.458Z,12.45
2019-03-21T09:09:18.047Z,8.83
2019-03-21T09:11:48.558Z,8.85
2019-03-21T09:14:18.906Z,11.55
2019-03-21T09:16:49.451Z,10.98
2019-03-21T09:19:19.963Z,11.28
2019-03-21T09:21:50.461Z,13.63
2019-03-21T09:24:21.021Z,8.43
2019-03-21T09:26:51.398Z,10.03
2019-03-21T09:29:21.993Z,9.83
2019-03-21T09:31:52.463Z,10.25
2019-03-21T09:34:22.867Z,8.58
2019-03-21T09:36:53.351Z,10.58
2019-03-21T09:39:23.738Z,9.45
2019-03-21T09:41:54.105Z,8.50
2019-03-21T09:44:28.516Z,8.18
2019-03-21T09:46:58.929Z,9.88
2019-03-21T09:49:29.437Z,10.70
2019-03-21T09:51:59.873Z,10.58
2019-03-21T09:54:30.221Z,10.35
2019-03-21T09:57:00.630Z,10.18
2019-03-21T09:59:31.139Z,9.25
2019-03-21T10:02:01.473Z,7.72
2019-03-21T10:04:31.952Z,8.35
2019-03-21T10:07:02.410Z,8.90
2019-03-21T10:09:32.829Z,8.73
2019-03-21T10:12:03.254Z,7.80
2019-03-21T10:14:33.835Z,7.80
2019-03-21T10:17:04.198Z,8.70
2019-03-21T10:19:34.644Z,8.30
2019-03-21T10:22:05.006Z,8.45
2019-03-21T10:24:35.402Z,7.33
2019-03-21T10:27:05.892Z,6.67
2019-03-21T10:29:36.291Z,7.08
2019-03-21T10:32:14.133Z,8.05
2019-03-21T10:34:38.837Z,7.50
2019-03-21T10:37:09.276Z,8.55
2019-03-21T10:39:39.676Z,7.60
2019-03-21T10:42:10.389Z,9.08
2019-03-21T10:44:40.832Z,9.73
2019-03-21T10:47:11.243Z,7.10
2019-03-21T10:49:41.661Z,7.60
2019-03-21T10:52:12.032Z,5.87
2019-03-21T10:54:42.369Z,6.07
2019-03-21T10:57:12.877Z,6.13
2019-03-21T10:59:43.305Z,6.53
2019-03-21T11:02:13.621Z,6.28
2019-03-21T11:04:43.999Z,7.80
2019-03-21T11:07:12.306Z,7.03
2019-03-21T11:09:42.858Z,7.17
2019-03-21T11:12:13.198Z,6.87
2019-03-21T11:14:43.736Z,7.55
2019-03-21T11:17:14.253Z,8.05
2019-03-21T11:19:44.765Z,7.03
2019-03-21T11:22:15.256Z,6.75
2019-03-21T11:24:45.683Z,10.85
2019-03-21T11:27:16.132Z,6.85
2019-03-21T11:29:46.594Z,7.75
2019-03-21T11:32:17.055Z,7.87
2019-03-21T11:34:47.480Z,8.45
2019-03-21T11:37:17.924Z,5.80
2019-03-21T11:39:48.282Z,6.22
2019-03-21T11:42:18.761Z,8.70
2019-03-21T11:44:49.180Z,7.97
2019-03-21T11:47:19.639Z,7.37
2019-03-21T11:49:49.996Z,7.65
2019-03-21T11:52:21.573Z,7.42
2019-03-21T11:54:52.076Z,7.05
2019-03-21T11:57:22.590Z,6.50
2019-03-21T11:59:52.953Z,8.33
2019-03-21T12:02:27.350Z,8.03
2019-03-21T12:04:55.722Z,5.97
2019-03-21T12:07:26.189Z,7.00
2019-03-21T12:09:56.600Z,8.07
2019-03-21T12:12:27.228Z,8.07
2019-03-21T12:14:57.708Z,6.92
2019-03-21T12:17:28.087Z,6.92
2019-03-21T12:19:58.538Z,7.30
2019-03-21T12:22:30.215Z,7.37
2019-03-21T12:25:01.199Z,7.58
2019-03-21T12:27:31.669Z,6.83
2019-03-21T12:30:02.062Z,5.95
2019-03-21T12:32:32.489Z,7.90
2019-03-21T12:35:02.953Z,5.70
2019-03-21T12:37:33.377Z,7.62
2019-03-21T12:40:03.909Z,7.10
2019-03-21T12:42:34.340Z,6.35
2019-03-21T12:45:06.325Z,7.13
2019-03-21T12:47:36.876Z,7.25
2019-03-21T12:50:08.401Z,7.97
2019-03-21T12:52:41.515Z,7.55
2019-03-21T12:55:11.257Z,7.75
2019-03-21T12:57:41.653Z,7.25
2019-03-21T13:00:12.489Z,5.85
2019-03-21T13:02:43.291Z,6.62
2019-03-21T13:05:18.461Z,7.58
2019-03-21T13:07:48.871Z,7.67
2019-03-21T13:10:19.399Z,7.05
2019-03-21T13:12:49.846Z,7.55
2019-03-21T13:15:29.483Z,9.43
2019-03-21T13:17:52.517Z,7.33
2019-03-21T13:20:22.846Z,7.30
2019-03-21T13:22:53.819Z,7.25
2019-03-21T13:25:24.522Z,9.43
2019-03-21T13:27:55.025Z,8.60
2019-03-21T13:30:25.678Z,7.33
2019-03-21T13:32:56.071Z,8.70
2019-03-21T13:35:32.678Z,8.90
2019-03-21T13:37:59.615Z,8.55
2019-03-21T13:40:30.217Z,7.65
2019-03-21T13:43:00.608Z,7.40
2019-03-21T13:45:31.039Z,7.42
2019-03-21T13:48:01.513Z,7.28
2019-03-21T13:50:31.907Z,7.80
2019-03-21T13:53:05.092Z,6.53
2019-03-21T13:55:34.458Z,8.70
2019-03-21T13:58:05.782Z,7.30
2019-03-21T14:00:36.262Z,5.78
2019-03-21T14:03:07.851Z,6.22
2019-03-21T14:05:45.576Z,8.35
2019-03-21T14:08:21.857Z,7.28
2019-03-21T14:10:52.300Z,7.20
2019-03-21T14:13:22.709Z,7.87
2019-03-21T14:15:58.448Z,8.45
2019-03-21T14:18:30.047Z,6.87
2019-03-21T14:21:00.678Z,9.10
2019-03-21T14:23:42.403Z,8.15
2019-03-21T14:26:03.318Z,10.05
2019-03-21T14:28:33.766Z,8.90
2019-03-21T14:31:07.363Z,10.78
2019-03-21T14:33:37.908Z,8.80
2019-03-21T14:36:08.343Z,9.13
2019-03-21T14:38:38.855Z,9.63
2019-03-21T14:41:09.269Z,9.03
2019-03-21T14:43:39.800Z,7.75
2019-03-21T14:46:10.318Z,8.25
2019-03-21T14:48:40.934Z,9.75
2019-03-21T14:51:11.427Z,9.60
2019-03-21T14:53:41.877Z,9.25
2019-03-21T14:56:12.254Z,9.20
2019-03-21T14:58:43.806Z,9.05
2019-03-21T15:01:14.196Z,7.67
2019-03-21T15:03:44.771Z,9.85
2019-03-21T15:06:15.270Z,8.63
2019-03-21T15:08:45.801Z,9.88
2019-03-21T15:11:27.629Z,9.63
2019-03-21T15:13:48.467Z,8.85
2019-03-21T15:16:19.017Z,10.63
2019-03-21T15:18:49.464Z,11.30
2019-03-21T15:21:19.998Z,12.73
2019-03-21T15:23:58.864Z,9.78
2019-03-21T15:26:22.445Z,11.43
2019-03-21T15:28:52.817Z,10.40
2019-03-21T15:31:23.242Z,12.68
2019-03-21T15:33:53.657Z,11.43
2019-03-21T15:36:24.403Z,11.63
2019-03-21T15:38:54.740Z,12.25
2019-03-21T15:41:25.667Z,11.33
2019-03-21T15:43:56.177Z,12.88
2019-03-21T15:46:26.736Z,11.38
2019-03-21T15:48:57.397Z,10.23
2019-03-21T15:51:27.878Z,12.05
2019-03-21T15:53:58.397Z,12.55
2019-03-21T15:56:29.033Z,10.63
2019-03-21T15:58:59.517Z,9.58
2019-03-21T16:01:29.997Z,11.35
2019-03-21T16:04:00.507Z,11.05
2019-03-21T16:06:31.109Z,10.80
2019-03-21T16:09:01.611Z,9.63
2019-03-21T16:11:33.735Z,9.83
2019-03-21T16:14:04.228Z,9.25
2019-03-21T16:16:34.559Z,10.55
2019-03-21T16:19:04.918Z,9.10
2019-03-21T16:21:35.336Z,9.08
2019-03-21T16:24:06.003Z,10.20
2019-03-21T16:26:36.993Z,9.80
2019-03-21T16:29:10.051Z,9.68
2019-03-21T16:31:39.743Z,10.28
2019-03-21T16:34:10.087Z,9.25
2019-03-21T16:36:40.429Z,8.38
2019-03-21T16:39:10.845Z,8.73
2019-03-21T16:41:41.276Z,9.50
2019-03-21T16:44:11.670Z,10.58
2019-03-21T16:46:42.217Z,9.70
2019-03-21T16:49:12.630Z,9.60
2019-03-21T16:51:43.061Z,9.90
2019-03-21T16:54:17.404Z,8.18
2019-03-21T16:56:45.770Z,9.10
2019-03-21T16:59:16.271Z,8.45
2019-03-21T17:01:46.789Z,9.98
2019-03-21T17:04:17.224Z,8.93
2019-03-21T17:06:47.594Z,9.28
2019-03-21T17:09:17.993Z,11.35
2019-03-21T17:11:48.509Z,9.98
2019-03-21T17:14:18.921Z,10.25
2019-03-21T17:16:49.454Z,10.60
2019-03-21T17:19:19.974Z,10.72
2019-03-21T17:21:50.716Z,10.38
2019-03-21T17:24:29.357Z,9.43
2019-03-21T17:26:53.289Z,9.40
2019-03-21T17:29:23.758Z,9.75
2019-03-21T17:31:54.274Z,8.43
2019-03-21T17:34:24.699Z,9.38
2019-03-21T17:36:55.189Z,9.85
2019-03-21T17:39:25.646Z,9.90
2019-03-21T17:41:56.054Z,10.28
2019-03-21T17:44:27.419Z,9.78
2019-03-21T17:46:57.921Z,9.28
2019-03-21T17:49:28.298Z,10.03
2019-03-21T17:51:58.677Z,10.88
2019-03-21T17:54:40.675Z,11.40
2019-03-21T17:57:01.428Z,11.30
2019-03-21T17:59:31.850Z,10.85
2019-03-21T18:02:02.719Z,9.23
2019-03-21T18:04:35.736Z,10.13
2019-03-21T18:07:05.587Z,10.05
2019-03-21T18:09:37.029Z,8.93
2019-03-21T18:12:07.510Z,8.65
2019-03-21T18:14:37.890Z,9.53
2019-03-21T18:17:08.600Z,10.20
2019-03-21T18:19:39.205Z,9.80
2019-03-21T18:22:09.571Z,10.95
2019-03-21T18:24:40.008Z,9.30
2019-03-21T18:27:10.491Z,11.48
2019-03-21T18:29:40.884Z,9.78
2019-03-21T18:32:11.379Z,10.53
2019-03-21T18:34:41.714Z,9.93
2019-03-21T18:37:12.065Z,9.23
2019-03-21T18:39:42.543Z,9.75
2019-03-21T18:42:13.101Z,12.88
2019-03-21T18:44:43.571Z,12.90
2019-03-21T18:47:14.009Z,11.78
2019-03-21T18:49:44.449Z,14.13
2019-03-21T18:52:14.834Z,12.60
2019-03-21T18:54:45.553Z,12.90
2019-03-21T18:57:16.043Z,11.05
2019-03-21T18:59:46.408Z,10.10
2019-03-21T19:02:16.727Z,9.15
2019-03-21T19:04:47.218Z,11.40
2019-03-21T19:07:17.654Z,11.03
2019-03-21T19:09:48.098Z,13.40
2019-03-21T19:12:18.475Z,11.40
2019-03-21T19:14:49.012Z,12.37
2019-03-21T19:17:20.573Z,14.80
2019-03-21T19:19:51.058Z,15.78
2019-03-21T19:22:21.484Z,14.28
2019-03-21T19:24:52.083Z,24.52
2019-03-21T19:27:22.548Z,20.37
2019-03-21T19:29:52.934Z,29.67
2019-03-21T19:32:23.337Z,30.32
2019-03-21T19:34:53.813Z,29.50
2019-03-21T19:37:24.385Z,31.87
2019-03-21T19:39:54.843Z,24.25
2019-03-21T19:42:25.441Z,18.75
2019-03-21T19:44:56.001Z,19.77
2019-03-21T19:47:30.267Z,17.07
2019-03-21T19:49:58.737Z,14.85
2019-03-21T19:52:29.265Z,12.95
2019-03-21T19:54:59.670Z,14.38
2019-03-21T19:57:30.099Z,13.93
2019-03-21T20:00:00.550Z,13.80
2019-03-21T20:02:31.042Z,12.25
2019-03-21T20:05:01.505Z,12.13
2019-03-21T20:07:31.991Z,12.33
2019-03-21T20:10:02.438Z,10.05
2019-03-21T20:12:33.337Z,9.65
2019-03-21T20:15:03.722Z,11.45
2019-03-21T20:17:34.282Z,10.20
2019-03-21T20:20:05.504Z,8.93
2019-03-21T20:22:36.006Z,9.68
2019-03-21T20:25:07.123Z,8.30
2019-03-21T20:27:37.675Z,9.63
2019-03-21T20:30:09.746Z,8.70
2019-03-21T20:32:40.246Z,8.60
2019-03-21T20:35:11.464Z,7.17
2019-03-21T20:37:42.031Z,7.17
2019-03-21T20:40:13.129Z,8.18
2019-03-21T20:42:43.593Z,8.65
2019-03-21T20:45:14.766Z,8.03
2019-03-21T20:47:45.226Z,9.40
2019-03-21T20:50:16.686Z,8.98
2019-03-21T20:52:47.143Z,8.03
2019-03-21T20:55:17.658Z,8.70
2019-03-21T20:57:48.150Z,9.15
2019-03-21T21:00:19.933Z,9.65
2019-03-21T21:02:50.907Z,8.50
2019-03-21T21:05:23.103Z,7.83
2019-03-21T21:07:53.546Z,7.58
2019-03-21T21:10:23.981Z,8.43
2019-03-21T21:12:54.493Z,8.60
2019-03-21T21:15:24.938Z,8.20
2019-03-21T21:17:55.407Z,9.75
2019-03-21T21:20:25.889Z,8.75
2019-03-21T21:22:56.287Z,9.07
2019-03-21T21:25:26.839Z,8.53
2019-03-21T21:27:57.391Z,11.30
2019-03-21T21:30:27.802Z,10.10
2019-03-21T21:32:58.291Z,11.12
2019-03-21T21:35:28.783Z,10.13
2019-03-21T21:37:59.184Z,8.08
2019-03-21T21:40:32.626Z,9.38
2019-03-21T21:43:03.335Z,8.68
2019-03-21T21:45:33.839Z,8.85
2019-03-21T21:48:04.436Z,7.80
2019-03-21T21:50:35.084Z,8.60
2019-03-21T21:53:05.488Z,8.98
2019-03-21T21:55:35.817Z,8.58
2019-03-21T21:58:06.318Z,7.97
2019-03-21T22:00:36.954Z,6.70
2019-03-21T22:03:07.327Z,8.23
2019-03-21T22:05:37.778Z,8.93
2019-03-21T22:08:08.247Z,12.30
2019-03-21T22:10:38.694Z,10.20
2019-03-21T22:13:09.239Z,8.95
2019-03-21T22:15:39.538Z,8.83
2019-03-21T22:18:09.894Z,7.13
2019-03-21T22:20:40.385Z,8.83
2019-03-21T22:23:10.803Z,8.15
2019-03-21T22:25:42.285Z,9.58
2019-03-21T22:28:12.636Z,8.75
2019-03-21T22:30:43.117Z,9.88
2019-03-21T22:33:13.490Z,7.72
2019-03-21T22:35:43.830Z,9.33
2019-03-21T22:38:14.301Z,9.30
2019-03-21T22:40:45.739Z,8.63
2019-03-21T22:43:16.221Z,7.62
2019-03-21T22:45:46.573Z,11.10
2019-03-21T22:48:16.968Z,7.75
2019-03-21T22:50:47.350Z,7.28
2019-03-21T22:53:17.735Z,7.92
2019-03-21T22:55:48.216Z,8.70
2019-03-21T22:58:18.588Z,8.20
2019-03-21T23:00:50.065Z,9.18
2019-03-21T23:03:20.699Z,7.05
2019-03-21T23:05:51.058Z,7.85
2019-03-21T23:08:22.465Z,8.38
2019-03-21T23:10:53.149Z,8.00
2019-03-21T23:13:23.505Z,8.90
2019-03-21T23:15:53.982Z,8.73
2019-03-21T23:18:24.315Z,8.15
2019-03-21T23:20:54.672Z,8.03
2019-03-21T23:23:25.043Z,10.25
2019-03-21T23:25:55.416Z,10.32
2019-03-21T23:28:25.861Z,11.43
2019-03-21T23:30:56.230Z,7.60
2019-03-21T23:33:26.857Z,10.13
2019-03-21T23:35:57.334Z,11.57
2019-03-21T23:38:27.794Z,9.73
2019-03-21T23:40:58.234Z,9.10
2019-03-21T23:43:28.653Z,8.90
2019-03-21T23:45:59.087Z,9.63
2019-03-21T23:48:29.432Z,9.98
2019-03-21T23:50:59.880Z,10.45
2019-03-21T23:53:30.281Z,10.03
2019-03-21T23:56:00.673Z,9.90
2019-03-21T23:58:31.061Z,11.80
